Time;durP1;ratioP1;P1;durP2;ratioP2;P2;SDS_P1;SDS_P2;PMS_P1;PMS_P2;Temp;Humidity;BMP_temperature;BMP_pressure;BME280_temperature;BME280_humidity;BME280_pressure;Samples;Min_cycle;Max_cycle;Signal;HPM_P1;HPM_P2
2022/08/31 00:04:37;;;;;;;11.30;5.30;;;;;;;25.02;46.83;98402.34;4999508;28;20041;-77
2022/08/31 00:07:03;;;;;;;15.60;5.72;;;;;;;24.76;47.22;98404.34;4980353;28;20184;-78
2022/08/31 00:09:31;;;;;;;8.60;5.35;;;;;;;24.86;47.03;98407.84;5001236;28;20041;-78
2022/08/31 00:11:58;;;;;;;15.70;5.88;;;;;;;24.93;46.95;98407.53;5019894;28;20175;-79
2022/08/31 00:14:26;;;;;;;10.98;5.63;;;;;;;24.83;47.11;98410.31;5037113;28;20102;-79
2022/08/31 00:16:52;;;;;;;13.13;5.82;;;;;;;24.89;47.11;98414.63;5019890;28;20076;-78
2022/08/31 00:19:17;;;;;;;16.48;6.03;;;;;;;24.92;47.07;98420.28;5003197;28;20496;-78
2022/08/31 00:21:43;;;;;;;10.23;5.80;;;;;;;24.72;47.65;98423.09;5019406;28;20038;-78
2022/08/31 00:24:09;;;;;;;13.20;5.82;;;;;;;24.67;47.61;98416.91;5036106;28;20459;-78
2022/08/31 00:26:36;;;;;;;13.77;6.47;;;;;;;24.66;48.11;98428.84;5002985;28;20493;-78
2022/08/31 00:29:03;;;;;;;12.20;5.55;;;;;;;24.59;48.26;98417.44;4986509;28;20501;-75
2022/08/31 00:31:31;;;;;;;10.90;5.73;;;;;;;24.58;47.91;98418.53;5019440;28;20440;-75
2022/08/31 00:33:57;;;;;;;11.00;5.25;;;;;;;24.56;48.26;98420.69;5002739;28;20041;-75
2022/08/31 00:36:25;;;;;;;11.70;5.75;;;;;;;24.62;48.12;98422.31;5019128;28;20134;-76
2022/08/31 00:38:51;;;;;;;10.20;5.47;;;;;;;24.48;48.50;98419.38;5035811;28;20053;-75
2022/08/31 00:41:21;;;;;;;13.32;5.45;;;;;;;24.56;48.58;98420.69;5017807;28;20048;-74
2022/08/31 00:43:51;;;;;;;11.48;5.55;;;;;;;24.34;48.54;98404.75;5033298;28;20041;-75
2022/08/31 00:46:21;;;;;;;9.68;5.75;;;;;;;24.33;48.86;98410.47;5016758;28;20041;-75
2022/08/31 00:49:11;;;;;;;12.43;6.40;;;;;;;24.42;48.78;98416.94;5034742;28;20052;-76
2022/08/31 00:52:08;;;;;;;13.23;6.10;;;;;;;24.36;48.93;98418.06;5001016;28;20140;-76
2022/08/31 00:54:53;;;;;;;8.23;5.55;;;;;;;24.34;49.53;98423.75;5047924;28;20045;-76
2022/08/31 00:57:20;;;;;;;10.63;5.38;;;;;;;24.13;49.73;98414.06;5018224;28;20049;-76
2022/08/31 00:59:46;;;;;;;14.30;5.80;;;;;;;24.16;49.69;98421.63;5036811;28;20041;-77
2022/08/31 01:02:12;;;;;;;9.77;5.70;;;;;;;24.01;49.57;98421.66;5002560;28;20052;-78
2022/08/31 01:04:38;;;;;;;10.20;5.78;;;;;;;24.00;49.64;98424.66;5035620;28;20464;-76
2022/08/31 01:07:08;;;;;;;9.18;5.65;;;;;;;23.96;49.72;98399.97;5019019;28;20098;-76
2022/08/31 01:09:37;;;;;;;13.10;5.45;;;;;;;24.07;49.88;98414.31;5035458;28;20045;-76
2022/08/31 01:12:05;;;;;;;15.10;6.05;;;;;;;23.99;50.08;98420.31;5002790;28;20060;-76
2022/08/31 01:14:34;;;;;;;12.65;5.35;;;;;;;23.89;49.99;98423.00;5035312;28;20067;-76
2022/08/31 01:16:59;;;;;;;12.52;6.13;;;;;;;23.80;50.52;98411.09;5035434;28;20497;-77
2022/08/31 01:20:03;;;;;;;11.80;5.97;;;;;;;23.95;50.45;98416.50;5018250;28;20044;-76
2022/08/31 01:22:36;;;;;;;8.75;6.43;;;;;;;23.80;50.91;98413.81;5039323;28;20140;-76
2022/08/31 01:25:03;;;;;;;11.70;6.70;;;;;;;23.72;51.05;98417.03;5015452;28;20136;-76
2022/08/31 01:27:33;;;;;;;13.38;6.75;;;;;;;23.68;51.62;98413.25;5032081;28;20072;-76
2022/08/31 01:30:04;;;;;;;15.57;6.82;;;;;;;23.51;51.89;98404.59;5015515;28;20037;-77
2022/08/31 01:32:30;;;;;;;13.75;6.72;;;;;;;23.42;52.05;98411.63;5015606;28;20144;-77
2022/08/31 01:34:56;;;;;;;10.48;6.18;;;;;;;23.43;51.98;98407.84;4999246;28;20128;-77
2022/08/31 01:37:22;;;;;;;13.48;6.47;;;;;;;23.38;52.39;98413.25;4999250;28;20069;-76
2022/08/31 01:39:49;;;;;;;11.68;6.68;;;;;;;23.40;52.12;98411.91;4982658;28;20057;-76
2022/08/31 01:42:16;;;;;;;14.52;7.03;;;;;;;23.39;52.42;98412.19;5015445;28;20053;-77
2022/08/31 01:44:42;;;;;;;9.10;6.53;;;;;;;23.25;52.99;98406.44;4999617;28;20038;-76
2022/08/31 01:47:08;;;;;;;13.73;6.95;;;;;;;23.08;53.24;98406.66;5031564;28;20501;-76
2022/08/31 01:49:34;;;;;;;13.20;7.00;;;;;;;23.04;53.56;98402.88;5015271;28;20064;-76
2022/08/31 01:52:00;;;;;;;15.23;6.60;;;;;;;23.02;53.65;98406.91;4998599;28;20037;-77
2022/08/31 01:54:26;;;;;;;9.48;6.20;;;;;;;22.85;54.13;98399.03;4982600;28;20049;-78
2022/08/31 01:56:53;;;;;;;14.45;6.93;;;;;;;23.02;53.71;98402.31;5031538;28;20068;-75
2022/08/31 01:59:29;;;;;;;10.38;6.55;;;;;;;22.98;53.69;98395.00;5016421;28;20075;-77
2022/08/31 02:01:59;;;;;;;15.85;7.32;;;;;;;22.72;54.57;98391.44;4999868;28;20464;-75
2022/08/31 02:04:27;;;;;;;14.40;6.82;;;;;;;22.97;54.17;98394.19;4998831;28;20072;-78
2022/08/31 02:06:57;;;;;;;15.70;6.60;;;;;;;22.83;54.09;98398.47;5014795;28;20536;-76
2022/08/31 02:09:23;;;;;;;10.93;6.70;;;;;;;22.79;54.30;98389.25;5014858;28;20041;-72
2022/08/31 02:11:50;;;;;;;10.15;6.53;;;;;;;22.90;54.40;98392.81;4998423;28;20041;-71
2022/08/31 02:14:17;;;;;;;9.35;6.10;;;;;;;22.85;54.29;98381.97;4998688;28;20045;-72
2022/08/31 02:16:45;;;;;;;11.60;6.82;;;;;;;22.62;54.87;98385.97;5015161;28;20056;-77
2022/08/31 02:19:11;;;;;;;13.98;7.22;;;;;;;22.56;54.91;98391.59;5031068;28;20523;-78
2022/08/31 02:21:38;;;;;;;10.13;6.60;;;;;;;22.42;54.91;98377.72;5014867;28;20505;-77
2022/08/31 02:24:05;;;;;;;8.90;6.82;;;;;;;22.54;55.17;98391.09;5014645;28;20509;-76
2022/08/31 02:26:31;;;;;;;10.82;6.90;;;;;;;22.39;55.40;98386.38;5014340;28;20045;-77
2022/08/31 02:28:59;;;;;;;16.23;6.93;;;;;;;22.29;55.60;98375.53;4998122;28;20099;-76
2022/08/31 02:31:25;;;;;;;15.60;7.00;;;;;;;22.22;55.96;98396.56;5030097;28;20041;-74
2022/08/31 02:33:56;;;;;;;;;;;;;;;22.52;55.17;98385.09;5015173;28;20041;-73
2022/08/31 02:36:23;;;;;;;11.70;6.78;;;;;;;22.15;56.03;98390.59;4982079;28;19916;-73
2022/08/31 02:38:49;;;;;;;10.43;6.53;;;;;;;22.26;55.46;98377.94;5030848;28;20045;-73
2022/08/31 02:41:17;;;;;;;14.60;7.72;;;;;;;22.38;55.20;98390.16;5014781;28;20053;-73
2022/08/31 02:43:43;;;;;;;13.38;7.05;;;;;;;22.43;55.06;98387.50;5014593;28;20211;-73
2022/08/31 02:46:09;;;;;;;14.75;7.30;;;;;;;22.51;54.68;98380.78;5010222;28;20045;-73
2022/08/31 02:48:41;;;;;;;14.30;6.93;;;;;;;22.47;54.70;98388.59;5014916;28;20045;-73
2022/08/31 02:51:10;;;;;;;10.98;6.47;;;;;;;22.55;54.52;98387.28;4982569;28;20049;-73
2022/08/31 02:53:37;;;;;;;11.32;7.18;;;;;;;22.67;54.44;98385.16;4997595;28;20049;-74
2022/08/31 02:56:04;;;;;;;10.63;6.30;;;;;;;22.61;54.13;98387.06;4981389;28;20048;-73
2022/08/31 02:58:32;;;;;;;13.63;7.18;;;;;;;22.61;54.20;98387.06;5030432;28;20041;-74
2022/08/31 03:00:59;;;;;;;11.13;6.47;;;;;;;22.55;54.25;98381.88;5030335;28;20099;-73
2022/08/31 03:03:26;;;;;;;11.65;6.18;;;;;;;22.61;54.08;98383.53;4998059;28;20064;-74
2022/08/31 03:05:52;;;;;;;11.68;6.82;;;;;;;22.70;54.00;98387.34;5013895;28;20056;-73
2022/08/31 03:08:18;;;;;;;10.68;6.78;;;;;;;22.64;54.24;98386.53;5013956;28;20049;-73
2022/08/31 03:10:47;;;;;;;10.85;6.18;;;;;;;22.59;54.14;98380.25;4982370;28;20483;-75
2022/08/31 03:13:13;;;;;;;10.48;6.22;;;;;;;22.40;54.73;98387.19;4981165;28;20081;-75
2022/08/31 03:15:39;;;;;;;10.13;5.85;;;;;;;22.37;54.66;98377.69;5013802;28;20037;-73
2022/08/31 03:18:07;;;;;;;10.68;6.50;;;;;;;22.48;54.32;98373.16;4981192;28;20084;-74
2022/08/31 03:20:33;;;;;;;9.90;6.72;;;;;;;22.45;54.53;98373.69;5013891;28;20497;-79
2022/08/31 03:22:59;;;;;;;10.63;5.97;;;;;;;22.35;54.68;98379.88;4980899;28;20091;-75
2022/08/31 03:25:25;;;;;;;10.80;6.35;;;;;;;22.42;54.69;98380.44;4981031;28;20103;-74
2022/08/31 03:27:54;;;;;;;11.65;6.28;;;;;;;22.50;54.39;98379.94;4997862;28;20406;-73
2022/08/31 03:30:21;;;;;;;12.20;6.22;;;;;;;22.59;54.49;98380.25;4981297;28;20037;-74
2022/08/31 03:32:58;;;;;;;9.88;6.30;;;;;;;22.53;54.33;98371.31;4983951;28;20114;-73
2022/08/31 03:35:24;;;;;;;15.25;6.97;;;;;;;22.61;54.37;98378.09;4980818;28;20040;-74
2022/08/31 03:37:50;;;;;;;11.57;6.20;;;;;;;22.66;53.72;98378.94;4997249;28;20147;-74
2022/08/31 03:40:16;;;;;;;12.25;6.05;;;;;;;22.67;53.82;98377.88;5013650;28;20157;-74
2022/08/31 03:42:43;;;;;;;10.82;6.05;;;;;;;22.77;53.64;98383.28;4996666;28;20408;-78
2022/08/31 03:45:11;;;;;;;12.35;6.22;;;;;;;22.83;53.24;98387.63;4997240;28;20041;-74
2022/08/31 03:47:38;;;;;;;10.82;5.88;;;;;;;22.93;53.01;98386.84;5013297;28;20136;-77
2022/08/31 03:50:06;;;;;;;10.32;5.78;;;;;;;22.85;53.05;98385.50;4996909;28;20049;-72
2022/08/31 03:52:54;;;;;;;11.25;6.85;;;;;;;22.37;53.89;98369.59;5001756;28;20084;-75
2022/08/31 03:55:22;;;;;;;14.93;6.75;;;;;;;22.59;54.08;98372.97;4997650;28;20045;-77
2022/08/31 03:57:50;;;;;;;15.05;6.00;;;;;;;22.70;53.60;98377.31;5029801;28;20072;-77
2022/08/31 04:00:17;;;;;;;10.30;6.00;;;;;;;22.80;52.91;98385.47;5029706;28;20045;-78
2022/08/31 04:02:48;;;;;;;8.93;6.03;;;;;;;22.82;53.12;98374.38;5013290;28;20053;-78
2022/08/31 04:05:32;;;;;;;10.43;5.72;;;;;;;23.07;52.64;98371.72;5015298;28;20053;-78
2022/08/31 04:08:13;;;;;;;8.77;5.55;;;;;;;22.89;52.42;98364.94;5029422;28;20049;-78
2022/08/31 04:11:13;;;;;;;9.68;5.80;;;;;;;22.82;52.93;98372.50;5028905;28;20049;-78
2022/08/31 04:13:59;;;;;;;13.18;6.05;;;;;;;22.66;53.42;98373.53;5024660;28;20056;-77
2022/08/31 04:16:38;;;;;;;12.77;5.53;;;;;;;22.89;53.12;98364.13;5014379;28;20048;-77
2022/08/31 04:19:06;;;;;;;11.13;6.28;;;;;;;22.66;53.45;98368.13;5029175;28;20425;-77
2022/08/31 04:21:35;;;;;;;11.48;5.70;;;;;;;22.63;53.29;98370.53;5013385;28;20073;-77
2022/08/31 04:24:01;;;;;;;12.48;6.03;;;;;;;22.73;53.43;98365.97;4980153;28;20095;-77
2022/08/31 04:26:31;;;;;;;11.88;5.50;;;;;;;23.01;53.04;98368.22;4996397;28;20038;-76
2022/08/31 04:28:58;;;;;;;12.80;6.05;;;;;;;22.57;53.58;98369.69;5045288;28;20033;-74
2022/08/31 04:31:25;;;;;;;11.68;5.93;;;;;;;22.90;53.39;98365.72;4980216;28;20049;-76
2022/08/31 04:33:52;;;;;;;9.38;5.53;;;;;;;23.15;52.67;98357.66;4980570;28;20046;-76
2022/08/31 04:36:20;;;;;;;10.50;5.93;;;;;;;23.25;52.00;98363.09;5029123;28;20052;-75
2022/08/31 04:38:51;;;;;;;8.25;5.55;;;;;;;23.33;51.80;98370.69;4980890;28;20056;-75
2022/08/31 04:41:29;;;;;;;13.32;5.70;;;;;;;23.44;51.43;98376.94;4997492;28;20095;-75
2022/08/31 04:43:57;;;;;;;10.90;5.55;;;;;;;23.57;51.21;98379.13;5029137;28;20049;-76
2022/08/31 04:46:25;;;;;;;12.05;4.90;;;;;;;23.66;50.98;98374.75;4996838;28;20041;-77
2022/08/31 04:48:53;;;;;;;14.00;5.65;;;;;;;23.55;50.92;98373.97;4996712;28;20046;-78
2022/08/31 04:51:24;;;;;;;10.23;5.30;;;;;;;23.76;50.79;98358.47;4996941;28;20045;-78
2022/08/31 04:53:51;;;;;;;9.30;5.10;;;;;;;23.79;51.10;98369.59;4996781;28;20045;-78
2022/08/31 04:56:21;;;;;;;10.98;5.43;;;;;;;23.96;50.40;98370.13;5014932;28;20131;-77
2022/08/31 04:59:07;;;;;;;9.85;5.25;;;;;;;23.84;50.43;98372.31;4999904;28;20136;-75
2022/08/31 05:01:41;;;;;;;9.68;5.50;;;;;;;24.06;49.82;98372.03;4999251;28;20040;-76
2022/08/31 05:04:32;;;;;;;12.27;5.03;;;;;;;23.90;49.80;98364.97;5036483;28;20099;-77
2022/08/31 05:06:58;;;;;;;9.50;4.90;;;;;;;23.93;49.54;98365.22;5001341;28;20123;-75
2022/08/31 05:09:24;;;;;;;10.57;4.47;;;;;;;24.13;49.03;98384.22;5034875;28;20070;-75
2022/08/31 05:11:53;;;;;;;10.00;4.90;;;;;;;24.48;48.83;98389.50;5033797;28;20044;-75
2022/08/31 05:14:20;;;;;;;11.52;4.82;;;;;;;24.61;48.12;98379.97;5033831;28;20106;-75
2022/08/31 05:16:52;;;;;;;8.23;5.05;;;;;;;24.31;48.96;98382.81;5003303;28;20140;-75
2022/08/31 05:19:20;;;;;;;13.25;4.88;;;;;;;23.99;50.26;98368.75;5002000;28;20056;-74
2022/08/31 05:21:47;;;;;;;9.38;4.90;;;;;;;24.23;49.36;98378.75;5016792;28;20040;-76
2022/08/31 05:24:19;;;;;;;11.57;5.45;;;;;;;24.39;48.13;98406.66;5017287;28;20512;-74
2022/08/31 05:26:47;;;;;;;10.27;5.63;;;;;;;23.94;49.53;98388.53;5017196;28;20052;-75
2022/08/31 05:29:17;;;;;;;11.30;5.38;;;;;;;24.16;49.15;98386.38;5018477;28;20049;-74
2022/08/31 05:31:51;;;;;;;10.13;5.00;;;;;;;23.78;50.08;98369.88;5017668;28;20452;-74
2022/08/31 05:34:17;;;;;;;11.10;5.03;;;;;;;24.04;49.80;98379.63;5016959;28;20079;-73
2022/08/31 05:36:45;;;;;;;8.55;4.85;;;;;;;23.98;49.94;98386.97;5017523;28;20502;-70
2022/08/31 05:39:12;;;;;;;9.07;4.80;;;;;;;23.76;50.22;98385.59;5052181;28;20512;-70
2022/08/31 05:41:40;;;;;;;11.40;5.07;;;;;;;24.09;49.81;98371.47;5034051;28;20144;-70
2022/08/31 05:44:08;;;;;;;9.07;4.93;;;;;;;24.47;48.73;98395.22;5016479;28;20103;-70
2022/08/31 05:46:35;;;;;;;9.27;4.70;;;;;;;24.72;48.50;98384.28;5017837;28;20500;-70
2022/08/31 05:49:02;;;;;;;9.60;4.88;;;;;;;24.30;49.24;98390.13;5017827;28;20049;-70
2022/08/31 05:51:30;;;;;;;9.00;5.13;;;;;;;24.74;48.15;98385.63;5034046;28;20112;-70
2022/08/31 05:54:00;;;;;;;8.82;5.10;;;;;;;24.60;48.73;98389.22;5017066;28;20045;-70
2022/08/31 05:56:26;;;;;;;11.27;4.72;;;;;;;24.76;48.46;98402.47;5017209;28;20159;-71
2022/08/31 05:58:55;;;;;;;7.13;4.50;;;;;;;23.97;49.60;98398.88;5000931;28;20048;-71
2022/08/31 06:01:31;;;;;;;9.75;5.25;;;;;;;23.68;50.69;98397.78;4985488;28;20131;-71
2022/08/31 06:04:13;;;;;;;11.73;6.18;;;;;;;23.99;50.13;98409.44;5018720;28;20454;-70
2022/08/31 06:06:40;;;;;;;9.75;4.50;;;;;;;24.12;49.49;98396.16;5016812;28;20060;-71
2022/08/31 06:09:14;;;;;;;7.67;5.03;;;;;;;24.22;50.02;98400.72;5023145;28;20037;-68
2022/08/31 06:11:44;;;;;;;12.80;4.72;;;;;;;23.93;50.25;98410.50;5003517;28;20079;-71
2022/08/31 06:14:14;;;;;;;9.35;5.15;;;;;;;24.28;49.07;98408.56;5017270;28;20063;-70
2022/08/31 06:16:42;;;;;;;10.98;4.95;;;;;;;23.73;50.79;98407.81;5000882;28;20060;-69
2022/08/31 06:19:09;;;;;;;9.25;4.88;;;;;;;23.88;50.37;98408.63;5033461;28;20068;-68
2022/08/31 06:21:39;;;;;;;5.93;4.20;;;;;;;23.63;50.21;98413.25;5000462;28;20094;-69
2022/08/31 06:24:05;;;;;;;8.32;4.45;;;;;;;23.70;49.43;98419.22;5015916;28;20063;-69
2022/08/31 06:26:34;;;;;;;12.52;4.47;;;;;;;24.00;49.10;98421.94;5017105;28;20080;-68
2022/08/31 06:29:03;;;;;;;10.90;4.05;;;;;;;23.86;48.36;98407.28;5017229;28;20083;-68
2022/08/31 06:31:37;;;;;;;8.38;4.03;;;;;;;23.83;49.00;98408.66;5032976;28;20044;-67
2022/08/31 06:34:06;;;;;;;12.27;4.03;;;;;;;23.99;48.54;98390.47;5047027;28;20053;-68
2022/08/31 06:36:58;;;;;;;5.53;3.97;;;;;;;23.89;49.12;98418.41;5032845;28;20048;-68
2022/08/31 06:39:47;;;;;;;9.02;4.32;;;;;;;23.97;48.52;98430.63;5019711;28;20067;-68
2022/08/31 06:42:15;;;;;;;5.78;4.03;;;;;;;23.68;49.25;98427.63;5015308;28;20140;-68
2022/08/31 06:45:00;;;;;;;4.50;3.83;;;;;;;23.91;48.56;98420.84;5008444;28;20049;-69
2022/08/31 06:47:40;;;;;;;;;;;;;;;24.20;48.29;98432.75;4999823;28;20087;-68
2022/08/31 06:50:06;;;;;;;5.15;3.70;;;;;;;24.08;48.63;98438.47;4997145;28;20392;-68
2022/08/31 06:52:32;;;;;;;7.68;4.15;;;;;;;23.81;47.96;98442.53;5015120;28;20131;-69
2022/08/31 06:55:24;;;;;;;9.82;4.20;;;;;;;23.93;48.77;98426.78;5005772;28;20056;-68
2022/08/31 06:58:19;;;;;;;5.72;3.47;;;;;;;23.81;48.10;98418.13;5063406;28;20053;-69
2022/08/31 07:01:15;;;;;;;8.20;4.40;;;;;;;24.07;48.72;98433.31;5003528;28;20045;-68
2022/08/31 07:03:56;;;;;;;6.82;4.00;;;;;;;23.63;49.42;98424.09;5014597;28;20482;-68
2022/08/31 07:06:29;;;;;;;8.20;4.03;;;;;;;23.53;49.67;98443.06;4996173;28;20095;-68
2022/08/31 07:09:00;;;;;;;8.07;3.88;;;;;;;24.12;48.29;98447.69;5013508;28;20049;-67
2022/08/31 07:11:47;;;;;;;10.27;3.47;;;;;;;24.54;46.90;98439.19;5012478;28;20041;-69
2022/08/31 07:14:17;;;;;;;6.68;3.42;;;;;;;24.89;45.77;98449.94;4996990;28;20045;-68
2022/08/31 07:16:44;;;;;;;4.80;3.13;;;;;;;24.69;44.93;98428.31;5012082;28;20053;-68
2022/08/31 07:19:20;;;;;;;5.75;3.05;;;;;;;24.97;44.89;98449.34;4980103;28;20049;-68
2022/08/31 07:21:52;;;;;;;7.05;3.03;;;;;;;25.30;44.45;98447.78;5011991;28;20233;-68
2022/08/31 07:24:22;;;;;;;6.40;3.05;;;;;;;26.09;42.88;98454.56;4996677;28;20045;-68
2022/08/31 07:26:58;;;;;;;6.70;3.45;;;;;;;26.52;41.21;98456.31;5012229;28;20149;-68
2022/08/31 07:29:32;;;;;;;6.28;2.78;;;;;;;27.09;40.17;98463.56;5013085;28;20041;-69
2022/08/31 07:31:59;;;;;;;6.30;2.60;;;;;;;26.40;39.35;98452.38;5012580;28;20559;-69
2022/08/31 07:34:29;;;;;;;9.50;3.72;;;;;;;26.72;40.07;98455.31;5012637;28;20444;-69
2022/08/31 07:42:39;;;;;;;5.47;2.53;;;;;;;26.52;40.46;98456.31;5028745;28;20492;-68
2022/08/31 07:45:12;;;;;;;2.95;2.30;;;;;;;26.68;38.99;98456.19;4996081;28;20044;-68
2022/08/31 07:47:43;;;;;;;9.10;2.42;;;;;;;26.25;40.33;98447.91;5027834;28;20053;-67
2022/08/31 07:50:10;;;;;;;5.32;1.90;;;;;;;26.16;39.14;98465.13;5028079;28;20084;-68
2022/08/31 07:52:51;;;;;;;5.97;1.88;;;;;;;26.63;38.75;98450.75;5013582;28;20451;-69
2022/08/31 07:55:46;;;;;;;3.88;1.92;;;;;;;26.42;38.93;98463.78;4999952;28;20132;-69
2022/08/31 07:58:38;;;;;;;4.32;2.08;;;;;;;25.78;39.91;98455.94;4999822;28;20041;-68
2022/08/31 08:01:04;;;;;;;6.05;2.55;;;;;;;25.64;41.05;98452.22;5011449;28;20056;-67
2022/08/31 08:03:30;;;;;;;7.00;2.38;;;;;;;25.33;41.32;98441.84;4979126;28;20408;-67
2022/08/31 08:06:16;;;;;;;7.75;2.33;;;;;;;25.39;41.73;98437.97;5014015;28;20577;-68
2022/08/31 08:09:06;;;;;;;3.55;2.15;;;;;;;25.34;41.67;98446.97;5014732;28;20096;-67
2022/08/31 08:12:05;;;;;;;7.90;2.20;;;;;;;25.60;41.04;98450.34;5001595;28;20428;-67
2022/08/31 08:14:43;;;;;;;3.42;1.80;;;;;;;25.63;41.20;98442.41;5028642;28;20136;-70
2022/08/31 08:17:31;;;;;;;6.07;2.13;;;;;;;25.35;41.61;98450.53;5000979;28;20469;-67
2022/08/31 08:20:08;;;;;;;3.67;2.08;;;;;;;25.16;42.31;98442.19;5013295;28;20477;-67
2022/08/31 08:22:38;;;;;;;3.78;1.60;;;;;;;25.46;41.45;98433.06;5011890;28;20046;-66
2022/08/31 08:25:27;;;;;;;2.92;2.00;;;;;;;25.33;41.44;98450.81;5028019;28;20119;-67
2022/08/31 08:28:16;;;;;;;3.92;2.00;;;;;;;25.29;42.23;98467.94;5013871;28;20045;-66
2022/08/31 08:30:43;;;;;;;3.13;2.10;;;;;;;25.44;41.63;98459.69;5022067;28;20132;-67
2022/08/31 08:33:09;;;;;;;2.72;2.10;;;;;;;25.37;41.21;98424.66;5015632;28;20045;-66
2022/08/31 08:35:36;;;;;;;3.65;1.73;;;;;;;25.70;41.43;98451.09;5015708;28;20041;-66
2022/08/31 08:38:02;;;;;;;9.70;2.72;;;;;;;25.90;41.20;98459.09;5003922;28;20037;-67
2022/08/31 08:40:32;;;;;;;2.97;2.00;;;;;;;25.98;40.73;98469.38;4995082;28;20056;-67
2022/08/31 08:43:01;;;;;;;8.50;2.40;;;;;;;25.96;40.88;98462.56;5014943;28;20398;-66
2022/08/31 08:45:27;;;;;;;5.47;2.10;;;;;;;26.01;40.75;98457.13;4981129;28;20131;-67
2022/08/31 08:47:55;;;;;;;3.53;1.50;;;;;;;26.09;40.42;98435.53;5011828;28;20053;-66
2022/08/31 08:50:26;;;;;;;4.47;1.33;;;;;;;25.65;40.62;98466.63;4995424;28;20061;-66
2022/08/31 08:52:53;;;;;;;4.45;1.60;;;;;;;25.68;40.56;98469.59;5027886;28;20081;-66
2022/08/31 08:55:23;;;;;;;6.57;2.10;;;;;;;25.56;40.71;98458.25;4996094;28;20440;-66
2022/08/31 08:57:51;;;;;;;4.05;1.75;;;;;;;25.97;39.66;98459.56;4996017;28;20052;-66
2022/08/31 09:00:25;;;;;;;3.58;1.58;;;;;;;26.25;39.15;98469.66;4996662;28;20042;-66
2022/08/31 09:03:43;;;;;;;3.60;1.60;;;;;;;26.51;38.82;98477.59;5031782;28;20058;-67
2022/08/31 09:06:33;;;;;;;6.22;2.00;;;;;;;27.29;37.58;98451.59;5031472;28;20588;-66
2022/08/31 09:09:19;;;;;;;2.08;1.55;;;;;;;27.00;37.37;98464.50;5031047;28;20080;-66
2022/08/31 09:12:22;;;;;;;6.05;1.70;;;;;;;27.43;37.31;98469.63;5014017;28;20586;-66
2022/08/31 09:15:14;;;;;;;2.53;1.70;;;;;;;27.21;37.52;98466.66;5015677;28;20048;-66
2022/08/31 09:17:58;;;;;;;1.52;1.40;;;;;;;27.31;37.17;98463.00;5047475;28;20132;-66
2022/08/31 09:20:27;;;;;;;4.10;1.50;;;;;;;27.41;36.90;98457.41;5015464;28;20060;-67
2022/08/31 09:22:55;;;;;;;3.08;1.40;;;;;;;27.04;36.86;98455.44;5031513;28;20041;-67
2022/08/31 09:25:32;;;;;;;4.32;1.23;;;;;;;27.70;36.13;98477.97;4999109;28;20037;-66
2022/08/31 09:28:06;;;;;;;3.78;1.20;;;;;;;27.83;35.35;98477.22;5031976;28;20045;-67
2022/08/31 09:30:44;;;;;;;5.05;1.40;;;;;;;27.79;35.48;98481.66;5031978;28;20046;-66
2022/08/31 09:33:23;;;;;;;1.70;1.02;;;;;;;27.52;35.66;98481.50;5014849;28;20119;-66
2022/08/31 09:36:00;;;;;;;4.10;1.27;;;;;;;26.39;37.46;98469.81;5014188;28;20117;-67
2022/08/31 09:38:38;;;;;;;1.65;1.10;;;;;;;26.48;37.66;98483.63;5032010;28;20060;-67
2022/08/31 09:41:20;;;;;;;4.47;1.13;;;;;;;26.06;38.66;98478.84;4981530;28;20041;-66
2022/08/31 09:43:46;;;;;;;4.88;1.27;;;;;;;26.08;38.65;98490.25;5013996;28;20136;-66
2022/08/31 09:46:25;;;;;;;3.67;1.13;;;;;;;27.00;37.02;98491.75;4981481;28;20042;-66
2022/08/31 09:48:57;;;;;;;2.83;1.20;;;;;;;28.01;35.38;98491.97;4998049;28;20509;-66
2022/08/31 09:51:30;;;;;;;4.40;1.20;;;;;;;28.17;35.36;98501.50;5014034;28;20045;-66
2022/08/31 09:57:00;;;;;;;3.55;1.17;;;;;;;27.50;35.47;98485.63;5030212;28;20107;-67
2022/08/31 09:59:42;;;;;;;3.05;1.10;;;;;;;27.38;35.72;98482.53;5013858;28;20493;-66
2022/08/31 10:02:21;;;;;;;1.30;1.20;;;;;;;28.19;34.44;98493.03;4999690;28;20175;-67
2022/08/31 10:04:59;;;;;;;3.17;1.10;;;;;;;28.37;33.53;98484.78;5013735;28;20057;-66
2022/08/31 10:07:36;;;;;;;1.25;0.90;;;;;;;28.41;32.46;98502.19;4997825;28;20049;-67
2022/08/31 10:10:04;;;;;;;1.70;1.10;;;;;;;28.93;32.54;98492.75;5031013;28;20037;-67
2022/08/31 10:12:35;;;;;;;4.15;1.15;;;;;;;29.53;31.28;98486.81;4996922;28;20055;-67
2022/08/31 10:15:08;;;;;;;4.10;1.20;;;;;;;29.79;30.99;98489.78;5013527;28;20052;-67
2022/08/31 10:17:37;;;;;;;5.28;1.40;;;;;;;30.24;30.37;98498.84;5013061;28;20073;-67
2022/08/31 10:20:20;;;;;;;3.00;1.30;;;;;;;29.75;31.20;98493.47;5030136;28;20037;-66
2022/08/31 10:22:50;;;;;;;1.45;1.33;;;;;;;29.15;32.54;98479.97;4996968;28;20130;-67
2022/08/31 10:25:27;;;;;;;3.95;1.33;;;;;;;29.01;32.47;98492.84;5030210;28;20378;-67
2022/08/31 10:28:15;;;;;;;4.00;1.30;;;;;;;28.66;33.32;98470.88;5029739;28;20073;-67
2022/08/31 10:30:48;;;;;;;5.75;1.40;;;;;;;28.37;33.70;98479.31;4983215;28;20065;-67
2022/08/31 10:33:24;;;;;;;5.40;1.15;;;;;;;28.32;33.83;98486.78;5029856;28;20047;-67
2022/08/31 10:35:59;;;;;;;2.65;1.25;;;;;;;29.73;31.56;98480.09;5029801;28;20494;-67
2022/08/31 10:38:39;;;;;;;2.50;1.30;;;;;;;29.42;32.05;98495.53;5029764;28;20045;-68
2022/08/31 10:41:27;;;;;;;1.42;1.08;;;;;;;29.48;31.67;98462.28;5029740;28;20144;-67
2022/08/31 10:44:00;;;;;;;4.13;1.58;;;;;;;28.77;32.68;98473.09;4997288;28;20045;-67
2022/08/31 10:46:29;;;;;;;7.85;1.20;;;;;;;28.90;32.83;98483.25;5029703;28;20444;-68
2022/08/31 10:48:56;;;;;;;9.32;1.40;;;;;;;28.48;33.78;98478.03;5030736;28;20106;-67
2022/08/31 10:52:09;;;;;;;4.30;1.30;;;;;;;28.58;33.74;98479.78;5029357;28;20037;-66
2022/08/31 10:54:46;;;;;;;5.50;1.45;;;;;;;28.08;33.93;98467.03;5030965;28;20076;-66
2022/08/31 10:57:33;;;;;;;2.00;1.15;;;;;;;28.24;34.23;98465.63;5031217;28;20144;-66
2022/08/31 11:00:40;;;;;;;3.38;1.40;;;;;;;27.80;34.93;98479.75;4996117;28;20051;-66
2022/08/31 11:03:24;;;;;;;2.42;1.20;;;;;;;27.37;36.01;98470.03;4999222;28;20099;-66
2022/08/31 11:06:14;;;;;;;3.30;1.20;;;;;;;26.87;37.50;98470.66;5012584;28;20056;-67
2022/08/31 11:08:52;;;;;;;7.75;1.33;;;;;;;26.02;40.08;98484.03;5012689;28;20148;-68
2022/08/31 11:11:38;;;;;;;2.95;1.15;;;;;;;26.59;40.52;98488.66;5012055;28;20091;-67
2022/08/31 11:14:25;;;;;;;6.32;1.70;;;;;;;26.89;40.79;98510.16;4996180;28;20071;-67
2022/08/31 11:17:13;;;;;;;3.13;1.40;;;;;;;27.40;39.96;98513.88;4996147;28;20083;-67
2022/08/31 11:20:26;;;;;;;5.15;1.88;;;;;;;27.39;40.05;98511.44;5012479;28;20045;-67
2022/08/31 11:23:11;;;;;;;3.50;1.25;;;;;;;27.33;40.58;98515.34;4996167;28;20458;-68
2022/08/31 11:25:46;;;;;;;1.80;1.30;;;;;;;27.26;40.74;98495.81;4995807;28;20136;-68
2022/08/31 11:28:30;;;;;;;2.55;1.30;;;;;;;27.85;39.89;98506.94;5028743;28;20049;-67
2022/08/31 11:30:58;;;;;;;2.10;0.77;;;;;;;28.29;37.98;98514.72;4996976;28;20046;-66
2022/08/31 11:33:26;;;;;;;2.33;0.93;;;;;;;28.26;37.43;98526.22;5015950;28;20547;-70
2022/08/31 11:36:01;;;;;;;1.13;1.00;;;;;;;27.96;38.16;98520.16;4996841;28;20045;-67
2022/08/31 11:38:53;;;;;;;4.00;1.10;;;;;;;27.56;39.15;98528.94;5011516;28;20739;-66
2022/08/31 11:41:37;;;;;;;1.83;1.10;;;;;;;27.22;39.41;98530.16;4991087;28;20041;-67
2022/08/31 11:44:06;;;;;;;1.67;0.90;;;;;;;26.83;41.07;98515.94;5000103;28;20103;-66
2022/08/31 11:46:42;;;;;;;2.00;0.90;;;;;;;26.14;41.98;98521.75;5027772;28;20053;-67
2022/08/31 11:49:09;;;;;;;1.10;1.00;;;;;;;25.46;44.03;98520.88;4995938;28;20042;-67
2022/08/31 11:51:41;;;;;;;3.08;1.00;;;;;;;25.27;44.81;98522.56;5011667;28;20056;-68
2022/08/31 11:54:24;;;;;;;1.77;0.88;;;;;;;25.11;45.17;98518.28;5011719;28;20042;-68
2022/08/31 11:56:55;;;;;;;1.27;0.90;;;;;;;24.59;46.09;98524.13;5028172;28;20049;-68
2022/08/31 11:59:29;;;;;;;7.00;1.15;;;;;;;24.48;46.20;98527.13;4995721;28;20068;-67
2022/08/31 12:01:57;;;;;;;1.17;1.10;;;;;;;24.27;46.56;98520.94;4995257;28;20429;-68
2022/08/31 12:04:28;;;;;;;3.17;1.40;;;;;;;24.45;46.56;98519.53;4994387;28;20060;-67
2022/08/31 12:06:57;;;;;;;2.55;0.90;;;;;;;24.10;46.72;98512.25;4995369;28;20041;-73
2022/08/31 12:09:56;;;;;;;3.72;0.95;;;;;;;24.40;46.17;98516.84;5012128;28;20053;-67
2022/08/31 12:12:34;;;;;;;2.85;1.08;;;;;;;24.47;45.80;98518.19;4998334;28;20045;-71